Terminal Aerodrome Forecast
Issued by NWS North Platte, NE

Home | Current Version | Previous Version | Text Only | Print | Product List | Glossary On
Versions: 1 2 3 4 5 6 7 8 9 10 11 12 13 14 15
000
FTUS43 KLBF 232330
TAFVTN
TAF
KVTN 232330Z 2400/2424 16020G30KT P6SM SCT250
     FM240300 16018G25KT P6SM SCT250 WS020/17045KT
     FM240800 22014KT P6SM BKN120 PROB30 2409/2412 5SM -TSRA
      OVC050CB
     FM241400 25012KT P6SM SCT100=

USA.gov is the U.S. government's official web portal to all federal, state and local government web resources and services.